Time;durP1;ratioP1;P1;durP2;ratioP2;P2;SDS_P1;SDS_P2;PMS_P1;PMS_P2;Temp;Humidity;BMP_temperature;BMP_pressure;BME280_temperature;BME280_humidity;BME280_pressure;Samples;Min_cycle;Max_cycle;Signal;HPM_P1;HPM_P2
2024/04/09 00:01:17;;;;;;;17.00;3.72;;;16.60;99.90;;;;;;5415646;26;20451;-49
2024/04/09 00:03:43;;;;;;;12.10;3.35;;;16.60;99.90;;;;;;5417164;26;19992;-50
2024/04/09 00:06:15;;;;;;;17.08;3.72;;;16.60;99.90;;;;;;5417005;26;19996;-51
2024/04/09 00:08:44;;;;;;;20.13;4.93;;;16.50;99.90;;;;;;5416851;26;19996;-51
2024/04/09 00:11:21;;;;;;;20.73;4.35;;;16.50;99.90;;;;;;5417135;26;20480;-51
2024/04/09 00:13:54;;;;;;;14.63;4.25;;;16.60;99.90;;;;;;5417476;26;20452;-48
2024/04/09 00:16:24;;;;;;;14.85;4.25;;;16.50;99.90;;;;;;5416219;26;19996;-50
2024/04/09 00:18:54;;;;;;;17.50;4.05;;;16.50;99.90;;;;;;5417103;26;20004;-51
2024/04/09 00:21:24;;;;;;;16.33;3.78;;;16.60;99.90;;;;;;5416876;26;19999;-49
2024/04/09 00:23:51;;;;;;;14.07;3.20;;;16.60;99.90;;;;;;5416980;26;19996;-50
2024/04/09 00:26:17;;;;;;;17.77;3.45;;;16.60;99.90;;;;;;5417286;26;20444;-48
2024/04/09 00:28:44;;;;;;;19.08;4.63;;;16.80;99.90;;;;;;5416684;26;20448;-50
2024/04/09 00:31:10;;;;;;;17.45;3.40;;;17.00;99.90;;;;;;5416782;26;19999;-50
2024/04/09 00:33:36;;;;;;;20.17;4.25;;;17.10;99.90;;;;;;5416838;26;20072;-51
2024/04/09 00:36:02;;;;;;;15.35;3.88;;;17.00;99.90;;;;;;5416633;26;20011;-50
2024/04/09 00:38:28;;;;;;;15.60;3.45;;;16.90;99.90;;;;;;5416456;26;19996;-51
2024/04/09 00:40:54;;;;;;;13.10;3.45;;;16.80;99.90;;;;;;5416718;26;19995;-50
2024/04/09 00:43:20;;;;;;;18.23;3.38;;;16.80;99.90;;;;;;5416572;26;19999;-50
2024/04/09 00:45:49;;;;;;;17.48;4.20;;;16.80;99.90;;;;;;5414685;26;20042;-50
2024/04/09 00:48:16;;;;;;;11.90;3.25;;;16.80;99.90;;;;;;5416502;26;20443;-50
2024/04/09 00:50:45;;;;;;;11.63;3.35;;;16.90;99.90;;;;;;5414616;26;20000;-47
2024/04/09 00:53:12;;;;;;;18.10;3.10;;;16.90;99.90;;;;;;5416364;26;20339;-50
2024/04/09 00:55:42;;;;;;;12.80;2.97;;;17.20;99.90;;;;;;5416538;26;20064;-48
2024/04/09 00:58:13;;;;;;;14.20;3.30;;;17.20;99.90;;;;;;5415916;26;20071;-49
2024/04/09 01:00:40;;;;;;;16.35;3.55;;;17.30;99.90;;;;;;5413649;26;20452;-51
2024/04/09 01:03:13;;;;;;;19.35;3.72;;;17.30;99.90;;;;;;5414786;26;19999;-49
2024/04/09 01:05:40;;;;;;;12.52;2.80;;;17.30;99.90;;;;;;5416441;26;19999;-50
2024/04/09 01:08:06;;;;;;;11.93;2.95;;;17.40;99.90;;;;;;5415888;26;20005;-51
2024/04/09 01:10:32;;;;;;;13.60;3.28;;;17.30;99.90;;;;;;5416436;26;19995;-47
2024/04/09 01:12:59;;;;;;;16.52;3.05;;;17.30;99.90;;;;;;5414795;26;20003;-47
2024/04/09 01:15:25;;;;;;;18.25;3.67;;;17.20;99.90;;;;;;5416257;26;20335;-49
2024/04/09 01:17:51;;;;;;;15.63;2.85;;;17.30;99.90;;;;;;5415669;26;20065;-49
2024/04/09 01:20:17;;;;;;;14.77;3.45;;;17.30;99.90;;;;;;5416160;26;20041;-49
2024/04/09 01:22:45;;;;;;;16.95;3.70;;;17.50;99.90;;;;;;5416271;26;20060;-48
2024/04/09 01:25:11;;;;;;;11.07;3.25;;;17.40;99.90;;;;;;5416110;26;19996;-50
2024/04/09 01:27:38;;;;;;;13.32;3.20;;;17.40;99.90;;;;;;5415637;26;20073;-49
2024/04/09 01:30:08;;;;;;;19.33;3.20;;;17.30;99.90;;;;;;5415891;26;19999;-48
2024/04/09 01:32:36;;;;;;;11.93;2.75;;;17.30;99.90;;;;;;5414456;26;20421;-51
2024/04/09 01:35:06;;;;;;;14.30;2.83;;;17.20;99.90;;;;;;5415849;26;20003;-51
2024/04/09 01:37:36;;;;;;;10.65;2.85;;;17.10;99.90;;;;;;5415568;26;20478;-51
2024/04/09 01:40:04;;;;;;;17.52;3.67;;;17.10;99.90;;;;;;5415827;26;20072;-50
2024/04/09 01:42:30;;;;;;;15.93;2.63;;;17.10;99.90;;;;;;5415840;26;20329;-50
2024/04/09 01:44:57;;;;;;;15.63;3.67;;;17.00;99.90;;;;;;5415729;26;20329;-51
2024/04/09 01:47:23;;;;;;;14.20;2.72;;;16.90;99.90;;;;;;5415658;26;19995;-47
2024/04/09 01:49:49;;;;;;;13.68;3.03;;;16.80;99.90;;;;;;5415514;26;20326;-51
2024/04/09 01:52:15;;;;;;;12.40;3.00;;;16.80;99.90;;;;;;5415565;26;19995;-51
2024/04/09 01:54:45;;;;;;;16.02;3.17;;;16.70;99.90;;;;;;5415499;26;20073;-51
2024/04/09 01:57:11;;;;;;;15.15;3.67;;;16.70;99.90;;;;;;5415200;26;20533;-49
2024/04/09 01:59:38;;;;;;;13.15;2.90;;;16.70;99.90;;;;;;5415312;26;19996;-50
2024/04/09 02:02:06;;;;;;;11.95;3.33;;;16.60;99.90;;;;;;5415347;26;20023;-52
2024/04/09 02:04:32;;;;;;;11.73;2.80;;;16.50;99.90;;;;;;5415316;26;20006;-52
2024/04/09 02:06:58;;;;;;;14.70;3.05;;;16.50;99.90;;;;;;5414825;26;20401;-49
2024/04/09 02:09:25;;;;;;;11.40;3.15;;;16.40;99.90;;;;;;5415850;26;20060;-52
2024/04/09 02:11:51;;;;;;;13.32;3.22;;;16.30;99.90;;;;;;5418180;26;20436;-50
2024/04/09 02:14:18;;;;;;;11.68;3.35;;;16.30;99.90;;;;;;5419010;26;20076;-51
2024/04/09 02:16:45;;;;;;;15.90;3.50;;;16.20;99.90;;;;;;5418530;26;20409;-47
2024/04/09 02:19:12;;;;;;;13.27;4.05;;;16.30;99.90;;;;;;5418694;26;19988;-51
2024/04/09 02:21:38;;;;;;;15.40;3.40;;;16.40;99.90;;;;;;5418715;26;19991;-50
2024/04/09 02:24:05;;;;;;;14.32;4.07;;;16.30;99.90;;;;;;5418706;26;20064;-51
2024/04/09 02:26:31;;;;;;;14.25;3.15;;;16.20;99.90;;;;;;5418614;26;19996;-52
2024/04/09 02:28:58;;;;;;;11.57;2.63;;;16.10;99.90;;;;;;5416968;26;19996;-52
2024/04/09 02:31:24;;;;;;;10.88;2.70;;;16.00;99.90;;;;;;5418371;26;19996;-52
2024/04/09 02:33:53;;;;;;;13.20;3.55;;;16.00;99.90;;;;;;5418620;26;20452;-52
2024/04/09 02:36:19;;;;;;;18.33;4.00;;;16.00;99.90;;;;;;5418511;26;19992;-48
2024/04/09 02:38:45;;;;;;;11.02;2.78;;;16.00;99.90;;;;;;5418857;26;20470;-51
2024/04/09 02:41:16;;;;;;;14.93;3.17;;;15.90;99.90;;;;;;5418220;26;20078;-48
2024/04/09 02:43:42;;;;;;;12.38;2.78;;;15.90;99.90;;;;;;5418827;26;20014;-50
2024/04/09 02:46:09;;;;;;;10.77;3.03;;;15.90;99.90;;;;;;5418636;26;19996;-47
2024/04/09 02:48:35;;;;;;;12.57;2.90;;;15.80;99.90;;;;;;5418213;26;20340;-50
2024/04/09 02:51:03;;;;;;;14.25;3.00;;;15.80;99.90;;;;;;5418306;26;20043;-50
2024/04/09 02:53:30;;;;;;;15.02;3.05;;;15.80;99.90;;;;;;5418033;26;20072;-51
2024/04/09 02:56:07;;;;;;;13.65;3.05;;;15.70;99.90;;;;;;5418250;26;19996;-50
2024/04/09 02:58:36;;;;;;;13.02;3.10;;;15.70;99.90;;;;;;5418042;26;19999;-48
2024/04/09 03:01:10;;;;;;;10.50;2.90;;;15.60;99.90;;;;;;5418294;26;19995;-46
2024/04/09 03:03:37;;;;;;;13.43;3.25;;;15.60;99.90;;;;;;5418124;26;19996;-51
2024/04/09 03:06:13;;;;;;;16.05;3.60;;;15.50;99.90;;;;;;5417955;26;20011;-50
2024/04/09 03:08:41;;;;;;;18.85;3.30;;;15.40;99.90;;;;;;5418019;26;20018;-50
2024/04/09 03:11:17;;;;;;;12.90;3.40;;;15.40;99.90;;;;;;5418002;26;19995;-47
2024/04/09 03:13:46;;;;;;;15.43;3.80;;;15.30;99.90;;;;;;5416342;26;20049;-47
2024/04/09 03:16:12;;;;;;;;;;;15.30;99.90;;;;;;5418519;26;20333;-48
2024/04/09 03:18:38;;;;;;;11.82;2.95;;;15.30;99.90;;;;;;5417391;26;19925;-48
2024/04/09 03:21:04;;;;;;;9.32;3.03;;;15.30;99.90;;;;;;5418137;26;20006;-47
2024/04/09 03:23:30;;;;;;;15.38;3.85;;;15.20;99.90;;;;;;5416918;26;20333;-49
2024/04/09 03:25:56;;;;;;;12.70;3.22;;;15.20;99.90;;;;;;5417861;26;20068;-47
2024/04/09 03:28:22;;;;;;;12.95;2.78;;;15.30;99.90;;;;;;5417444;26;20069;-48
2024/04/09 03:30:58;;;;;;;12.90;3.42;;;15.30;99.90;;;;;;5417946;26;20003;-48
2024/04/09 03:33:24;;;;;;;15.18;3.80;;;15.40;99.90;;;;;;5417655;26;20000;-48
2024/04/09 03:35:55;;;;;;;12.40;3.42;;;15.40;99.90;;;;;;5417614;26;20007;-48
2024/04/09 03:38:21;;;;;;;11.27;3.20;;;15.40;99.90;;;;;;5417121;26;19996;-48
2024/04/09 03:40:57;;;;;;;15.27;3.45;;;15.50;99.90;;;;;;5417461;26;20332;-46
2024/04/09 03:43:23;;;;;;;13.68;3.35;;;15.40;99.90;;;;;;5417750;26;20029;-48
2024/04/09 03:46:16;;;;;;;18.10;2.90;;;15.40;99.90;;;;;;5417619;26;20451;-46
2024/04/09 03:48:44;;;;;;;12.68;3.47;;;15.40;99.90;;;;;;5417343;26;20007;-47
2024/04/09 03:51:11;;;;;;;10.18;3.17;;;15.40;99.90;;;;;;5417858;26;20068;-46
2024/04/09 03:53:38;;;;;;;12.95;3.15;;;15.50;99.90;;;;;;5418043;26;20056;-48
2024/04/09 03:56:09;;;;;;;9.18;3.15;;;15.50;99.90;;;;;;5418121;26;20425;-46
2024/04/09 03:58:38;;;;;;;13.25;3.00;;;15.60;99.90;;;;;;5417902;26;20348;-46
2024/04/09 04:01:04;;;;;;;;;;;15.50;99.90;;;;;;5419831;26;20064;-47
2024/04/09 04:03:32;;;;;;;15.75;2.90;;;15.50;99.90;;;;;;5419073;26;20366;-47
2024/04/09 04:06:01;;;;;;;11.93;2.78;;;15.40;99.90;;;;;;5418692;26;19997;-49
2024/04/09 04:08:32;;;;;;;9.48;3.10;;;15.40;99.90;;;;;;5418470;26;20007;-47
2024/04/09 04:11:00;;;;;;;10.82;3.28;;;15.40;99.90;;;;;;5418264;26;20418;-48
2024/04/09 04:13:29;;;;;;;9.02;3.33;;;15.50;99.90;;;;;;5414485;26;20006;-50
2024/04/09 04:16:03;;;;;;;7.97;2.88;;;15.50;99.90;;;;;;5417201;26;20006;-50
2024/04/09 04:18:29;;;;;;;15.50;3.40;;;15.60;99.90;;;;;;5416650;26;20000;-48
2024/04/09 04:20:56;;;;;;;12.63;3.38;;;15.60;99.90;;;;;;5417003;26;20007;-49
2024/04/09 04:23:22;;;;;;;11.23;2.90;;;15.60;99.90;;;;;;5416869;26;19995;-51
2024/04/09 04:26:02;;;;;;;10.13;2.67;;;15.60;99.90;;;;;;5416947;26;20019;-50
2024/04/09 04:28:31;;;;;;;10.18;3.03;;;15.60;99.90;;;;;;5416480;26;20011;-51
2024/04/09 04:30:58;;;;;;;9.85;3.28;;;15.70;99.90;;;;;;5416435;26;20008;-50
2024/04/09 04:33:24;;;;;;;9.35;2.38;;;15.60;99.90;;;;;;5416596;26;19995;-48
2024/04/09 04:35:54;;;;;;;16.80;6.35;;;15.60;99.90;;;;;;5416863;26;19995;-51
2024/04/09 04:38:20;;;;;;;8.90;2.78;;;15.60;99.90;;;;;;5417892;26;20072;-51
2024/04/09 04:40:47;;;;;;;11.85;4.05;;;15.60;99.90;;;;;;5417925;26;20405;-47
2024/04/09 04:43:13;;;;;;;8.13;2.80;;;15.50;99.90;;;;;;5415605;26;19999;-49
2024/04/09 04:45:44;;;;;;;12.05;4.60;;;15.50;99.90;;;;;;5416735;26;19999;-51
2024/04/09 04:48:10;;;;;;;5.90;2.10;;;15.50;99.90;;;;;;5416204;26;20068;-51
2024/04/09 04:50:37;;;;;;;5.97;2.15;;;15.50;99.90;;;;;;5416598;26;19995;-48
2024/04/09 04:53:04;;;;;;;5.93;2.55;;;15.50;99.90;;;;;;5414852;26;20084;-50
2024/04/09 04:55:34;;;;;;;7.95;2.33;;;15.40;99.90;;;;;;5416746;26;20007;-50
2024/04/09 04:58:04;;;;;;;9.15;2.78;;;15.40;99.90;;;;;;5416193;26;20014;-48
2024/04/09 05:00:30;;;;;;;6.55;2.42;;;15.40;99.90;;;;;;5416398;26;20007;-47
2024/04/09 05:02:57;;;;;;;8.80;2.80;;;15.30;99.90;;;;;;5414277;26;20069;-46
2024/04/09 05:05:23;;;;;;;9.32;2.50;;;15.20;99.90;;;;;;5416711;26;19995;-50
2024/04/09 05:07:50;;;;;;;9.27;2.60;;;15.30;99.90;;;;;;5416149;26;19992;-47
2024/04/09 05:10:17;;;;;;;7.40;2.53;;;15.30;99.90;;;;;;5415811;26;19995;-50
2024/04/09 05:12:47;;;;;;;8.30;3.20;;;15.30;99.90;;;;;;5414513;26;19991;-49
2024/04/09 05:15:14;;;;;;;7.32;3.10;;;15.20;99.90;;;;;;5416087;26;20000;-51
2024/04/09 05:17:40;;;;;;;9.52;3.55;;;15.30;99.90;;;;;;5416136;26;20009;-48
2024/04/09 05:20:10;;;;;;;12.07;4.13;;;15.30;99.90;;;;;;5416072;26;19996;-51
2024/04/09 05:22:47;;;;;;;9.73;4.28;;;15.30;99.90;;;;;;5416620;26;19999;-50
2024/04/09 05:25:15;;;;;;;11.90;4.13;;;15.20;99.90;;;;;;5416622;26;19991;-50
2024/04/09 05:27:41;;;;;;;10.73;3.08;;;15.20;99.90;;;;;;5415004;26;19996;-46
2024/04/09 05:30:10;;;;;;;6.70;2.63;;;15.20;99.90;;;;;;5414073;26;20028;-50
2024/04/09 05:32:44;;;;;;;8.30;2.78;;;15.20;99.90;;;;;;5416217;26;19992;-50
2024/04/09 05:35:10;;;;;;;8.15;3.20;;;15.10;99.90;;;;;;5416006;26;19995;-46
2024/04/09 05:37:37;;;;;;;11.20;3.15;;;15.10;99.90;;;;;;5415498;26;19999;-49
2024/04/09 05:40:08;;;;;;;11.07;4.30;;;15.00;99.90;;;;;;5415784;26;19995;-50
2024/04/09 05:42:38;;;;;;;11.95;3.92;;;14.90;99.90;;;;;;5384436;26;20000;-49
2024/04/09 05:45:10;;;;;;;6.72;3.50;;;14.80;99.90;;;;;;5415123;26;20007;-49
2024/04/09 05:47:36;;;;;;;10.38;4.68;;;14.80;99.90;;;;;;5415880;26;20402;-49
2024/04/09 05:50:06;;;;;;;8.35;3.80;;;14.80;99.90;;;;;;5415679;26;20072;-51
2024/04/09 05:52:32;;;;;;;6.72;3.40;;;14.70;99.90;;;;;;5415698;26;19995;-50
2024/04/09 05:54:58;;;;;;;8.75;3.90;;;14.70;99.90;;;;;;5415684;26;20052;-45
2024/04/09 05:57:25;;;;;;;7.43;2.97;;;14.60;99.90;;;;;;5413154;26;20003;-48
2024/04/09 05:59:54;;;;;;;6.50;3.42;;;14.70;99.90;;;;;;5415584;26;19999;-51
2024/04/09 06:02:20;;;;;;;7.65;3.70;;;14.70;99.90;;;;;;5415812;26;20007;-48
2024/04/09 06:04:47;;;;;;;6.70;3.15;;;14.70;99.90;;;;;;5415493;26;20437;-51
2024/04/09 06:07:13;;;;;;;7.85;3.50;;;14.60;99.90;;;;;;5414951;26;19996;-50
2024/04/09 06:09:39;;;;;;;8.05;3.10;;;14.60;99.90;;;;;;5415792;26;19996;-47
2024/04/09 06:12:06;;;;;;;6.80;3.20;;;14.60;99.90;;;;;;5415540;26;20007;-49
2024/04/09 06:14:32;;;;;;;9.73;3.92;;;14.60;99.90;;;;;;5415359;26;20069;-50
2024/04/09 06:16:58;;;;;;;6.78;2.80;;;14.50;99.90;;;;;;5415012;26;20032;-49
2024/04/09 06:19:24;;;;;;;3.90;1.50;;;14.60;99.90;;;;;;5415074;26;20458;-50
2024/04/09 06:21:50;;;;;;;4.85;1.70;;;14.40;99.90;;;;;;5415425;26;20703;-51
2024/04/09 06:24:16;;;;;;;5.25;1.55;;;14.20;99.90;;;;;;5415196;26;20072;-51
2024/04/09 06:26:42;;;;;;;2.95;1.50;;;14.20;99.90;;;;;;5414700;26;20072;-51
2024/04/09 06:29:08;;;;;;;3.85;1.60;;;14.00;99.90;;;;;;5415348;26;20436;-50
2024/04/09 06:31:34;;;;;;;6.40;1.23;;;13.80;99.90;;;;;;5415258;26;20000;-51
2024/04/09 06:34:00;;;;;;;2.58;0.95;;;13.70;99.90;;;;;;5415267;26;20084;-51
2024/04/09 06:36:26;;;;;;;4.00;1.35;;;13.50;99.90;;;;;;5414604;26;19996;-50
2024/04/09 06:38:52;;;;;;;2.53;0.90;;;13.50;99.90;;;;;;5414745;26;20517;-51
2024/04/09 06:41:18;;;;;;;3.67;1.00;;;13.40;99.90;;;;;;5414757;26;19996;-51
2024/04/09 06:43:44;;;;;;;2.30;0.90;;;13.30;99.90;;;;;;5414723;26;20007;-48
2024/04/09 06:46:10;;;;;;;1.85;0.63;;;13.20;99.90;;;;;;5414858;26;20068;-51
2024/04/09 06:48:36;;;;;;;7.68;2.63;;;13.20;99.90;;;;;;5414496;26;19995;-51
2024/04/09 06:51:02;;;;;;;2.05;0.82;;;13.10;99.90;;;;;;5414444;26;20448;-52
2024/04/09 06:53:30;;;;;;;4.47;1.40;;;13.00;99.90;;;;;;5412669;26;19996;-52
2024/04/09 06:55:56;;;;;;;4.03;1.20;;;13.00;99.90;;;;;;5414761;26;20004;-52
2024/04/09 06:58:22;;;;;;;5.00;1.57;;;13.00;99.90;;;;;;5416171;26;20068;-51
2024/04/09 07:00:48;;;;;;;2.07;1.00;;;12.90;99.90;;;;;;5418049;26;19995;-50
2024/04/09 07:03:14;;;;;;;2.53;1.20;;;12.90;99.90;;;;;;5418063;26;20014;-49
2024/04/09 07:05:40;;;;;;;3.20;0.97;;;12.80;99.90;;;;;;5418052;26;20340;-49
2024/04/09 07:08:06;;;;;;;2.93;1.13;;;12.80;99.90;;;;;;5417745;26;19995;-46
2024/04/09 07:10:32;;;;;;;6.83;1.80;;;12.80;99.90;;;;;;5417878;26;19995;-49
2024/04/09 07:12:59;;;;;;;3.77;1.23;;;12.80;99.90;;;;;;5417738;26;19996;-48
2024/04/09 07:15:28;;;;;;;5.93;1.40;;;12.80;99.90;;;;;;5418018;26;19996;-51
2024/04/09 07:17:54;;;;;;;4.70;0.85;;;12.80;99.90;;;;;;5417714;26;20328;-51
2024/04/09 07:20:20;;;;;;;3.23;0.80;;;12.70;99.90;;;;;;5417876;26;20433;-50
2024/04/09 07:22:46;;;;;;;3.23;0.80;;;12.70;99.90;;;;;;5417916;26;19995;-52
2024/04/09 07:25:13;;;;;;;2.97;0.80;;;12.70;99.90;;;;;;5417827;26;20364;-51
2024/04/09 07:27:43;;;;;;;5.63;0.70;;;12.60;99.90;;;;;;5417364;26;20000;-52
2024/04/09 07:30:10;;;;;;;3.10;0.60;;;12.60;99.90;;;;;;5417342;26;19995;-51
2024/04/09 07:32:36;;;;;;;2.30;0.67;;;12.60;99.90;;;;;;5417564;26;20069;-50
2024/04/09 07:35:03;;;;;;;2.67;1.07;;;12.60;99.90;;;;;;5417516;26;20007;-51
2024/04/09 07:37:30;;;;;;;4.90;1.00;;;12.50;99.90;;;;;;5417144;26;19999;-49
2024/04/09 07:39:56;;;;;;;5.70;1.10;;;12.50;99.90;;;;;;5417650;26;20068;-50
2024/04/09 07:42:22;;;;;;;4.10;1.23;;;12.50;99.90;;;;;;5417774;26;20068;-48
2024/04/09 07:44:48;;;;;;;4.03;1.10;;;12.40;99.90;;;;;;5415732;26;19999;-50
2024/04/09 07:47:14;;;;;;;4.20;1.23;;;12.50;99.90;;;;;;5415407;26;20011;-49
2024/04/09 07:49:40;;;;;;;3.50;1.00;;;12.50;99.90;;;;;;5417433;26;20006;-50
2024/04/09 07:52:07;;;;;;;3.87;0.93;;;12.50;99.90;;;;;;5417599;26;19991;-53
2024/04/09 07:54:33;;;;;;;4.13;1.00;;;12.50;99.90;;;;;;5417836;26;20510;-46
2024/04/09 07:56:59;;;;;;;4.33;1.20;;;12.50;99.90;;;;;;5417205;26;19991;-50
2024/04/09 07:59:25;;;;;;;4.83;1.30;;;12.40;99.90;;;;;;5417275;26;20065;-50
2024/04/09 08:01:54;;;;;;;5.90;1.60;;;12.50;99.90;;;;;;5415055;26;19992;-51
2024/04/09 08:04:21;;;;;;;4.60;1.60;;;12.50;99.90;;;;;;5415889;26;19991;-50
2024/04/09 08:06:47;;;;;;;8.32;2.70;;;12.60;99.90;;;;;;5415294;26;20068;-51
2024/04/09 08:09:13;;;;;;;4.43;1.20;;;12.60;99.90;;;;;;5416695;26;20000;-50
2024/04/09 08:11:42;;;;;;;3.90;1.02;;;12.60;99.90;;;;;;5417035;26;20319;-51
2024/04/09 08:14:11;;;;;;;4.45;1.30;;;12.60;99.90;;;;;;5417254;26;20007;-51
2024/04/09 08:16:37;;;;;;;4.15;1.05;;;12.70;99.90;;;;;;5416817;26;20362;-51
2024/04/09 08:19:03;;;;;;;5.72;1.27;;;12.80;99.90;;;;;;5417468;26;20777;-51
2024/04/09 08:21:31;;;;;;;3.22;0.93;;;12.90;99.90;;;;;;5417192;26;20452;-51
2024/04/09 08:23:57;;;;;;;4.38;1.13;;;13.20;99.90;;;;;;5417100;26;19999;-51
2024/04/09 08:26:28;;;;;;;3.53;0.85;;;13.30;99.90;;;;;;5416954;26;19999;-51
2024/04/09 08:28:54;;;;;;;4.05;1.35;;;13.70;99.90;;;;;;5417549;26;20058;-50
2024/04/09 08:31:32;;;;;;;5.50;0.95;;;14.00;99.90;;;;;;5416827;26;19992;-50
2024/04/09 08:33:58;;;;;;;6.10;1.42;;;14.30;99.90;;;;;;5416958;26;19999;-49
2024/04/09 08:36:24;;;;;;;3.47;1.08;;;14.40;99.90;;;;;;5416618;26;20449;-49
2024/04/09 08:38:51;;;;;;;3.65;0.85;;;14.30;99.90;;;;;;5416705;26;20573;-47
2024/04/09 08:41:18;;;;;;;6.57;1.73;;;14.20;99.90;;;;;;5416631;26;20069;-50
2024/04/09 08:43:47;;;;;;;5.88;1.90;;;14.10;99.90;;;;;;5416683;26;20497;-50
2024/04/09 08:46:13;;;;;;;7.63;1.30;;;14.10;99.90;;;;;;5416918;26;20006;-51
2024/04/09 08:48:40;;;;;;;4.93;1.63;;;14.10;99.90;;;;;;5415812;26;20455;-50
2024/04/09 08:51:10;;;;;;;6.55;1.60;;;14.00;99.90;;;;;;5416555;26;20002;-50
2024/04/09 08:53:38;;;;;;;7.13;1.63;;;14.00;99.90;;;;;;5416571;26;19996;-51
2024/04/09 08:56:05;;;;;;;7.60;2.38;;;13.80;99.90;;;;;;5416512;26;19991;-51
2024/04/09 08:58:31;;;;;;;5.90;1.20;;;13.80;99.90;;;;;;5416260;26;20448;-51
2024/04/09 09:00:58;;;;;;;5.85;1.00;;;13.80;99.90;;;;;;5416286;26;20041;-51
2024/04/09 09:03:24;;;;;;;5.00;1.23;;;13.80;99.90;;;;;;5416656;26;20460;-51
2024/04/09 09:06:06;;;;;;;7.55;1.40;;;13.80;99.90;;;;;;5416430;26;20046;-51
2024/04/09 09:08:42;;;;;;;4.60;0.80;;;13.80;99.90;;;;;;5416135;26;19995;-49
2024/04/09 09:11:09;;;;;;;4.60;0.93;;;13.70;99.90;;;;;;5416477;26;19999;-51
2024/04/09 09:13:35;;;;;;;6.25;0.80;;;13.70;99.90;;;;;;5416434;26;20010;-51
2024/04/09 09:16:02;;;;;;;4.38;0.85;;;13.70;99.90;;;;;;5414589;26;19996;-51
2024/04/09 09:18:28;;;;;;;4.82;0.70;;;13.70;99.90;;;;;;5416110;26;20366;-51
2024/04/09 09:21:02;;;;;;;4.88;1.17;;;13.70;99.90;;;;;;5414751;26;19996;-50
2024/04/09 09:23:28;;;;;;;6.55;1.25;;;13.50;99.90;;;;;;5416085;26;20011;-51
2024/04/09 09:25:55;;;;;;;3.92;0.90;;;13.50;99.90;;;;;;5416527;26;19999;-51
2024/04/09 09:28:25;;;;;;;2.45;0.70;;;13.50;99.90;;;;;;5416286;26;20010;-51
2024/04/09 09:30:57;;;;;;;6.60;0.80;;;13.50;99.90;;;;;;5415962;26;19999;-51
2024/04/09 09:33:29;;;;;;;4.65;0.80;;;13.50;99.90;;;;;;5416230;26;20072;-51
2024/04/09 09:35:56;;;;;;;3.58;0.93;;;13.40;99.90;;;;;;5415910;26;19995;-50
2024/04/09 09:38:24;;;;;;;3.53;0.80;;;13.30;99.90;;;;;;5415832;26;20447;-50
2024/04/09 09:40:51;;;;;;;4.20;1.10;;;13.30;99.90;;;;;;5415770;26;20320;-51
2024/04/09 09:43:21;;;;;;;4.78;1.00;;;13.20;99.90;;;;;;5416046;26;19996;-50
2024/04/09 09:45:48;;;;;;;4.80;1.37;;;12.90;99.90;;;;;;5415846;26;19999;-51
2024/04/09 09:48:17;;;;;;;6.03;1.30;;;12.80;99.90;;;;;;5415400;26;19999;-50
2024/04/09 09:50:43;;;;;;;5.07;1.45;;;12.80;99.90;;;;;;5415992;26;20007;-48
2024/04/09 09:53:10;;;;;;;7.78;2.08;;;12.70;99.90;;;;;;5416098;26;19995;-51
2024/04/09 09:55:36;;;;;;;6.73;1.30;;;12.70;99.90;;;;;;5415900;26;20010;-49
2024/04/09 09:58:03;;;;;;;5.78;0.90;;;12.80;99.90;;;;;;5415462;26;20050;-51
2024/04/09 10:00:33;;;;;;;6.22;1.05;;;12.90;99.90;;;;;;5415673;26;19995;-47
2024/04/09 10:03:00;;;;;;;5.53;1.70;;;13.10;99.90;;;;;;5415653;26;20394;-50
2024/04/09 10:05:31;;;;;;;5.25;0.93;;;13.40;99.90;;;;;;5415960;26;19995;-48
2024/04/09 10:07:58;;;;;;;3.83;0.90;;;13.70;99.90;;;;;;5415398;26;20009;-50
2024/04/09 10:10:25;;;;;;;5.93;0.88;;;14.10;99.90;;;;;;5415557;26;19999;-48
2024/04/09 10:12:58;;;;;;;4.30;0.95;;;14.50;99.90;;;;;;5413803;26;20008;-50
2024/04/09 10:15:28;;;;;;;5.43;1.55;;;14.80;99.90;;;;;;5415498;26;20498;-51
2024/04/09 10:17:56;;;;;;;6.13;1.05;;;15.30;99.90;;;;;;5415414;26;20452;-49
2024/04/09 10:20:25;;;;;;;6.18;1.10;;;15.90;99.90;;;;;;5415263;26;20007;-52
2024/04/09 10:22:57;;;;;;;5.05;0.93;;;16.70;99.90;;;;;;5415375;26;19992;-51
2024/04/09 10:25:25;;;;;;;3.40;1.15;;;17.50;99.90;;;;;;5413799;26;20010;-50
2024/04/09 10:28:02;;;;;;;4.22;1.10;;;17.90;98.30;;;;;;5415444;26;20068;-49
2024/04/09 10:30:30;;;;;;;7.25;1.10;;;17.90;97.70;;;;;;5414701;26;19996;-49
2024/04/09 10:32:57;;;;;;;4.78;1.30;;;18.30;97.70;;;;;;5416381;26;20387;-51
2024/04/09 10:35:24;;;;;;;4.28;1.23;;;18.50;97.20;;;;;;5418651;26;20046;-50
2024/04/09 10:37:55;;;;;;;4.70;1.55;;;18.40;97.00;;;;;;5418213;26;19992;-49
2024/04/09 10:40:22;;;;;;;6.00;1.42;;;17.60;96.90;;;;;;5417787;26;20007;-51
2024/04/09 10:42:49;;;;;;;3.47;0.93;;;17.10;98.20;;;;;;5417817;26;19996;-50
2024/04/09 10:45:15;;;;;;;3.13;0.85;;;16.90;98.00;;;;;;5418369;26;19992;-50
2024/04/09 10:47:44;;;;;;;6.13;1.60;;;16.40;97.90;;;;;;5418099;26;19991;-49
2024/04/09 10:50:10;;;;;;;8.30;1.20;;;15.90;98.80;;;;;;5418250;26;20003;-50
2024/04/09 10:52:36;;;;;;;7.35;1.02;;;15.50;99.90;;;;;;5418247;26;20275;-50
2024/04/09 10:55:14;;;;;;;7.05;1.13;;;15.30;99.90;;;;;;5418441;26;19995;-48
2024/04/09 10:57:40;;;;;;;7.90;1.13;;;15.00;99.90;;;;;;5417495;26;20402;-49
2024/04/09 11:00:13;;;;;;;4.97;0.90;;;14.80;99.90;;;;;;5417902;26;20364;-51
2024/04/09 11:02:40;;;;;;;5.03;0.90;;;14.80;99.90;;;;;;5418299;26;20444;-50
2024/04/09 11:05:09;;;;;;;8.05;1.00;;;14.80;99.90;;;;;;5417960;26;20076;-50
2024/04/09 11:07:42;;;;;;;4.85;0.95;;;14.70;99.90;;;;;;5417936;26;19999;-49
2024/04/09 11:10:13;;;;;;;3.00;0.77;;;14.70;99.90;;;;;;5417803;26;20007;-49
2024/04/09 11:12:47;;;;;;;6.05;1.17;;;14.70;99.90;;;;;;5417942;26;19995;-50
2024/04/09 11:15:14;;;;;;;14.50;3.78;;;14.80;99.90;;;;;;5417677;26;20000;-51
2024/04/09 11:17:41;;;;;;;5.18;1.05;;;14.90;99.90;;;;;;5417460;26;20440;-50
2024/04/09 11:20:14;;;;;;;3.85;0.85;;;14.90;99.90;;;;;;5417154;26;20069;-47
2024/04/09 11:22:43;;;;;;;5.57;1.00;;;14.90;99.90;;;;;;5417882;26;20014;-49
2024/04/09 11:25:13;;;;;;;2.47;0.75;;;14.80;99.90;;;;;;5417642;26;20064;-50
2024/04/09 11:27:39;;;;;;;2.90;0.70;;;14.60;99.90;;;;;;5417514;26;19996;-46
2024/04/09 11:30:07;;;;;;;5.82;0.82;;;14.60;99.90;;;;;;5417571;26;20433;-46
2024/04/09 11:32:35;;;;;;;3.78;0.90;;;14.60;99.90;;;;;;5415978;26;20071;-50
2024/04/09 11:35:01;;;;;;;5.63;1.33;;;14.80;99.90;;;;;;5416255;26;20529;-48
2024/04/09 11:37:27;;;;;;;4.15;1.00;;;15.00;99.90;;;;;;5417316;26;19996;-50
2024/04/09 11:39:54;;;;;;;4.88;0.95;;;15.10;99.90;;;;;;5417403;26;20004;-51
2024/04/09 11:42:20;;;;;;;2.78;0.82;;;15.10;99.90;;;;;;5417040;26;20069;-49
2024/04/09 11:44:46;;;;;;;2.00;0.73;;;15.20;99.90;;;;;;5416674;26;19995;-50
2024/04/09 11:47:12;;;;;;;4.35;0.80;;;15.20;99.90;;;;;;5417235;26;20014;-51
2024/04/09 11:49:38;;;;;;;3.47;0.73;;;15.30;99.90;;;;;;5417610;26;19995;-51
2024/04/09 11:52:04;;;;;;;5.28;0.93;;;15.50;99.90;;;;;;5417606;26;20505;-50
2024/04/09 11:54:30;;;;;;;4.03;1.08;;;15.70;99.20;;;;;;5417309;26;20003;-51
2024/04/09 11:56:56;;;;;;;4.57;0.77;;;15.90;99.10;;;;;;5417088;26;20341;-49
2024/04/09 11:59:22;;;;;;;4.05;0.73;;;16.10;99.00;;;;;;5417083;26;20347;-51
2024/04/09 12:01:49;;;;;;;6.13;0.82;;;16.20;98.00;;;;;;5417198;26;20406;-52
2024/04/09 12:04:15;;;;;;;6.43;1.50;;;15.90;97.70;;;;;;5415681;26;20436;-50
2024/04/09 12:06:41;;;;;;;2.08;0.60;;;15.80;97.10;;;;;;5417035;26;20004;-50
2024/04/09 12:09:09;;;;;;;3.50;0.70;;;15.80;97.60;;;;;;5417358;26;20061;-51
2024/04/09 12:11:35;;;;;;;6.43;1.60;;;15.90;96.80;;;;;;5417282;26;20475;-50
2024/04/09 12:14:01;;;;;;;6.38;1.13;;;16.00;97.10;;;;;;5416617;26;19992;-48
2024/04/09 12:16:27;;;;;;;7.05;1.10;;;16.10;97.30;;;;;;5416394;26;20069;-50
2024/04/09 12:18:53;;;;;;;2.92;0.80;;;16.30;97.10;;;;;;5417266;26;20057;-51
2024/04/09 12:21:19;;;;;;;4.72;0.93;;;16.40;96.40;;;;;;5417024;26;19991;-52
2024/04/09 12:23:45;;;;;;;2.17;0.93;;;16.30;96.10;;;;;;5417069;26;19991;-50
2024/04/09 12:26:11;;;;;;;5.63;1.17;;;16.30;96.30;;;;;;5417140;26;19991;-51
2024/04/09 12:28:37;;;;;;;2.35;0.70;;;16.30;97.20;;;;;;5416593;26;20004;-51
2024/04/09 12:31:03;;;;;;;3.20;0.77;;;16.40;96.40;;;;;;5416867;26;20064;-48
2024/04/09 12:33:29;;;;;;;4.82;0.80;;;16.30;96.50;;;;;;5417255;26;20344;-51
2024/04/09 12:35:55;;;;;;;5.43;0.90;;;16.00;96.70;;;;;;5416947;26;20020;-50
2024/04/09 12:38:21;;;;;;;4.28;0.90;;;15.80;97.40;;;;;;5416458;26;19992;-51
2024/04/09 12:40:49;;;;;;;5.13;1.10;;;15.80;98.30;;;;;;5416877;26;20329;-50
2024/04/09 12:43:15;;;;;;;5.82;1.20;;;15.80;97.50;;;;;;5416529;26;20003;-52
2024/04/09 12:45:41;;;;;;;4.55;0.98;;;15.60;98.10;;;;;;5416850;26;20436;-51